createdAt,value
2019-06-08T00:04:27.174Z,15.10
2019-06-08T00:09:34.052Z,15.20
2019-06-08T00:14:40.570Z,15.10
2019-06-08T00:19:47.027Z,15.10
2019-06-08T00:24:52.649Z,15.10
2019-06-08T00:29:59.905Z,15.10
2019-06-08T00:35:06.830Z,15.20
2019-06-08T00:40:12.390Z,15.10
2019-06-08T00:45:19.894Z,15.00
2019-06-08T00:50:25.563Z,15.00
2019-06-08T00:55:31.345Z,14.90
2019-06-08T01:00:38.409Z,14.90
2019-06-08T01:05:45.720Z,14.90
2019-06-08T01:10:51.248Z,14.90
2019-06-08T01:15:57.828Z,14.60
2019-06-08T01:21:04.079Z,14.60
2019-06-08T01:26:10.603Z,14.60
2019-06-08T01:31:16.454Z,14.50
2019-06-08T01:36:22.786Z,14.40
2019-06-08T01:41:29.633Z,14.20
2019-06-08T01:46:36.523Z,14.20
2019-06-08T01:51:42.927Z,14.40
2019-06-08T01:56:49.612Z,14.70
2019-06-08T02:01:55.749Z,14.60
2019-06-08T02:07:03.970Z,14.70
2019-06-08T02:12:10.351Z,14.60
2019-06-08T02:17:16.064Z,14.60
2019-06-08T02:22:21.593Z,14.60
2019-06-08T02:27:27.277Z,14.60
2019-06-08T02:32:35.609Z,14.60
2019-06-08T02:37:41.771Z,14.60
2019-06-08T02:42:48.028Z,14.70
2019-06-08T02:47:53.436Z,14.70
2019-06-08T02:52:59.008Z,14.70
2019-06-08T02:58:06.288Z,14.50
2019-06-08T03:03:13.176Z,14.60
2019-06-08T03:08:19.771Z,14.60
2019-06-08T03:13:25.293Z,14.60
2019-06-08T03:18:33.614Z,14.60
2019-06-08T03:23:41.609Z,14.70
2019-06-08T03:28:48.159Z,14.70
2019-06-08T03:33:56.765Z,14.60
2019-06-08T03:39:04.839Z,14.60
2019-06-08T03:44:11.400Z,14.60
2019-06-08T03:49:16.790Z,14.60
2019-06-08T03:54:22.489Z,14.60
2019-06-08T03:59:28.291Z,14.60
2019-06-08T04:04:34.882Z,14.50
2019-06-08T04:09:41.694Z,14.50
2019-06-08T04:14:47.061Z,14.40
2019-06-08T04:20:09.575Z,14.40
2019-06-08T04:25:01.761Z,14.40
2019-06-08T04:30:08.611Z,14.40
2019-06-08T04:35:14.410Z,14.40
2019-06-08T04:40:19.968Z,14.40
2019-06-08T04:45:25.468Z,14.50
2019-06-08T04:50:31.401Z,14.40
2019-06-08T04:55:38.798Z,14.40
2019-06-08T05:00:48.047Z,14.40
2019-06-08T05:05:52.875Z,14.40
2019-06-08T05:10:59.605Z,14.50
2019-06-08T05:16:05.064Z,14.60
2019-06-08T05:21:11.872Z,14.60
2019-06-08T05:26:17.398Z,14.70
2019-06-08T05:31:23.399Z,14.70
2019-06-08T05:36:30.787Z,14.80
2019-06-08T05:41:39.407Z,14.80
2019-06-08T05:46:45.752Z,14.80
2019-06-08T05:51:53.128Z,14.90
2019-06-08T05:56:59.140Z,15.00
2019-06-08T06:02:06.739Z,15.00
2019-06-08T06:07:12.814Z,15.10
2019-06-08T06:12:18.157Z,15.20
2019-06-08T06:17:24.142Z,15.20
2019-06-08T06:22:31.366Z,15.30
2019-06-08T06:27:41.359Z,15.30
2019-06-08T06:32:47.827Z,15.30
2019-06-08T06:37:53.613Z,15.40
2019-06-08T06:42:59.406Z,15.50
2019-06-08T06:48:07.052Z,15.70
2019-06-08T06:53:12.967Z,15.90
2019-06-08T06:58:19.477Z,15.90
2019-06-08T07:03:25.252Z,16.10
2019-06-08T07:08:30.756Z,16.00
2019-06-08T07:13:41.115Z,16.10
2019-06-08T07:18:48.181Z,16.30
2019-06-08T07:23:56.262Z,16.40
2019-06-08T07:29:02.660Z,16.80
2019-06-08T07:34:08.475Z,16.70
2019-06-08T07:39:14.228Z,16.60
2019-06-08T07:44:19.915Z,16.80
2019-06-08T07:49:25.635Z,17.00
2019-06-08T07:54:32.246Z,17.00
2019-06-08T07:59:38.829Z,17.70
2019-06-08T08:04:45.110Z,17.50
2019-06-08T08:09:53.181Z,17.40
2019-06-08T08:15:00.028Z,17.70
2019-06-08T08:20:06.840Z,18.50
2019-06-08T08:25:12.753Z,19.30
2019-06-08T08:30:20.234Z,19.40
2019-06-08T08:35:27.875Z,18.90
2019-06-08T08:40:33.498Z,19.10
2019-06-08T08:45:40.563Z,19.00
2019-06-08T08:50:48.329Z,18.60
2019-06-08T08:55:57.906Z,19.30
2019-06-08T09:01:03.845Z,19.10
2019-06-08T09:06:12.915Z,19.10
2019-06-08T09:11:19.068Z,18.80
2019-06-08T09:16:24.548Z,18.20
2019-06-08T09:21:30.151Z,18.10
2019-06-08T09:26:38.055Z,18.10
2019-06-08T09:31:43.318Z,18.10
2019-06-08T09:36:49.640Z,18.40
2019-06-08T09:42:00.441Z,18.90
2019-06-08T09:47:11.321Z,18.40
2019-06-08T09:52:12.123Z,18.60
2019-06-08T09:57:19.029Z,19.30
2019-06-08T10:02:28.149Z,20.40
2019-06-08T10:07:33.361Z,20.60
2019-06-08T10:12:41.158Z,20.80
2019-06-08T10:17:51.434Z,21.00
2019-06-08T10:23:00.988Z,21.30
2019-06-08T10:28:11.309Z,21.80
2019-06-08T10:33:13.433Z,21.00
2019-06-08T10:38:19.211Z,21.20
2019-06-08T10:43:25.225Z,21.30
2019-06-08T10:48:30.931Z,21.60
2019-06-08T10:53:46.511Z,21.50
2019-06-08T10:58:44.132Z,21.80
2019-06-08T11:03:50.252Z,22.20
2019-06-08T11:08:58.573Z,22.10
2019-06-08T11:14:07.930Z,22.50
2019-06-08T11:19:14.161Z,22.40
2019-06-08T11:24:24.410Z,22.70
2019-06-08T11:29:30.756Z,22.60
2019-06-08T11:34:37.523Z,22.20
2019-06-08T11:39:42.880Z,22.00
2019-06-08T11:44:51.020Z,22.90
2019-06-08T11:50:00.547Z,24.00
2019-06-08T11:55:11.197Z,24.40
2019-06-08T12:00:30.691Z,25.00
2019-06-08T12:05:33.484Z,27.20
2019-06-08T12:10:41.151Z,27.30
2019-06-08T12:15:48.787Z,27.00
2019-06-08T12:20:58.406Z,27.20
2019-06-08T12:26:06.133Z,27.70
2019-06-08T12:31:17.104Z,27.90
2019-06-08T12:36:22.729Z,29.20
2019-06-08T12:41:31.424Z,30.80
2019-06-08T12:46:38.336Z,29.70
2019-06-08T12:51:44.263Z,30.10
2019-06-08T12:56:52.898Z,29.90
2019-06-08T13:01:59.970Z,29.80
2019-06-08T13:07:09.710Z,29.90
2019-06-08T13:12:20.350Z,30.70
2019-06-08T13:17:27.990Z,31.50
2019-06-08T13:22:35.245Z,33.00
2019-06-08T13:27:42.107Z,31.90
2019-06-08T13:32:48.335Z,32.90
2019-06-08T13:37:54.142Z,32.70
2019-06-08T13:43:03.524Z,32.30
2019-06-08T13:48:12.449Z,31.70
2019-06-08T13:53:24.329Z,31.80
2019-06-08T13:58:29.687Z,32.00
2019-06-08T14:03:34.230Z,32.40
2019-06-08T14:08:39.959Z,33.50
2019-06-08T14:13:48.011Z,32.20
2019-06-08T14:18:57.883Z,31.80
2019-06-08T14:24:09.162Z,31.00
2019-06-08T14:29:15.544Z,29.60
2019-06-08T14:34:23.313Z,31.70
2019-06-08T14:39:31.785Z,31.40
2019-06-08T14:44:41.500Z,31.90
2019-06-08T14:49:48.925Z,30.10
2019-06-08T14:54:58.651Z,29.50
2019-06-08T15:00:09.578Z,30.50
2019-06-08T15:05:13.102Z,29.50
2019-06-08T15:10:20.510Z,30.30
2019-06-08T15:15:32.188Z,30.80
2019-06-08T15:20:35.181Z,30.10
2019-06-08T15:25:42.663Z,30.20
2019-06-08T15:30:49.685Z,31.20
2019-06-08T15:35:57.498Z,31.40
2019-06-08T15:41:02.776Z,31.00
2019-06-08T15:46:12.735Z,30.40
2019-06-08T15:51:19.285Z,30.80
2019-06-08T15:56:38.228Z,30.90
2019-06-08T16:01:33.478Z,30.80
2019-06-08T16:06:44.073Z,31.40
2019-06-08T16:11:50.128Z,32.80
2019-06-08T16:16:57.142Z,32.50
2019-06-08T16:22:02.713Z,31.90
2019-06-08T16:27:08.268Z,32.20
2019-06-08T16:32:14.773Z,32.20
2019-06-08T16:37:21.457Z,31.60
2019-06-08T16:42:28.133Z,27.90
2019-06-08T16:47:33.800Z,25.70
2019-06-08T16:52:43.182Z,24.70
2019-06-08T16:57:49.916Z,24.70
2019-06-08T17:03:01.445Z,24.60
2019-06-08T17:08:07.092Z,24.60
2019-06-08T17:13:12.661Z,24.50
2019-06-08T17:18:19.980Z,24.30
2019-06-08T17:23:28.606Z,23.90
2019-06-08T17:28:37.181Z,23.10
2019-06-08T17:33:45.729Z,23.00
2019-06-08T17:38:54.522Z,22.80
2019-06-08T17:44:01.313Z,22.90
2019-06-08T17:49:09.112Z,22.80
2019-06-08T17:54:14.857Z,22.80
2019-06-08T17:59:20.987Z,22.30
2019-06-08T18:04:28.111Z,22.10
2019-06-08T18:09:34.265Z,21.90
2019-06-08T18:14:42.277Z,21.90
2019-06-08T18:19:52.770Z,21.70
2019-06-08T18:25:04.559Z,21.50
2019-06-08T18:30:15.375Z,21.40
2019-06-08T18:35:21.811Z,21.10
2019-06-08T18:40:28.206Z,21.00
2019-06-08T18:45:39.073Z,20.60
2019-06-08T18:50:48.522Z,20.20
2019-06-08T18:56:01.526Z,20.00
2019-06-08T19:01:22.041Z,19.70
2019-06-08T19:06:27.695Z,19.50
2019-06-08T19:11:33.813Z,19.40
2019-06-08T19:16:45.877Z,19.30
2019-06-08T19:21:50.573Z,19.20
2019-06-08T19:26:57.868Z,18.90
2019-06-08T19:32:07.293Z,18.60
2019-06-08T19:37:32.687Z,18.50
2019-06-08T19:42:52.038Z,18.60
2019-06-08T19:47:50.351Z,18.50
2019-06-08T19:52:58.104Z,18.40
2019-06-08T19:58:05.257Z,18.40
2019-06-08T20:03:12.439Z,18.30
2019-06-08T20:08:24.968Z,18.30
2019-06-08T20:13:31.082Z,18.10
2019-06-08T20:18:45.658Z,18.00
2019-06-08T20:24:02.118Z,18.00
2019-06-08T20:29:16.044Z,17.80
2019-06-08T20:34:18.422Z,17.80
2019-06-08T20:39:24.221Z,17.80
2019-06-08T20:44:31.179Z,17.80
2019-06-08T20:49:44.301Z,17.70
2019-06-08T20:54:50.867Z,17.50
2019-06-08T20:59:59.328Z,17.40
2019-06-08T21:05:08.817Z,17.10
2019-06-08T21:10:14.382Z,17.10
2019-06-08T21:15:20.198Z,17.20
2019-06-08T21:20:28.361Z,17.20
2019-06-08T21:25:39.060Z,16.80
2019-06-08T21:30:50.294Z,16.60
2019-06-08T21:36:04.212Z,16.40
2019-06-08T21:41:05.253Z,16.30
2019-06-08T21:46:10.899Z,16.00
2019-06-08T21:51:16.729Z,15.80
2019-06-08T21:56:22.570Z,15.60
2019-06-08T22:01:55.191Z,15.50
2019-06-08T22:07:03.874Z,15.30
2019-06-08T22:12:13.104Z,15.20
2019-06-08T22:17:23.264Z,15.10
2019-06-08T22:22:30.056Z,14.90
2019-06-08T22:27:38.171Z,15.00
2019-06-08T22:32:47.463Z,14.80
2019-06-08T22:37:53.276Z,14.80
2019-06-08T22:43:02.679Z,14.70
2019-06-08T22:48:28.560Z,14.60
2019-06-08T22:53:38.565Z,14.60
2019-06-08T22:58:44.764Z,14.40
2019-06-08T23:03:51.490Z,14.40
2019-06-08T23:09:00.944Z,14.30
2019-06-08T23:14:12.810Z,14.30
2019-06-08T23:19:17.417Z,14.30
2019-06-08T23:24:23.388Z,14.20
2019-06-08T23:29:29.116Z,14.00
2019-06-08T23:34:35.135Z,13.90
2019-06-08T23:39:53.617Z,13.70
2019-06-08T23:45:00.592Z,13.60
2019-06-08T23:50:09.995Z,13.60
2019-06-08T23:55:18.211Z,13.40
